sensor_id;sensor_type;location;lat;lon;timestamp;P1;durP1;ratioP1;P2;durP2;ratioP2
20639;SDS011;10479;53.524;9.846;2023-06-14T00:01:01;5.35;;;2.10;;
20639;SDS011;10479;53.524;9.846;2023-06-14T00:03:28;6.35;;;2.50;;
20639;SDS011;10479;53.524;9.846;2023-06-14T00:05:54;6.28;;;2.17;;
20639;SDS011;10479;53.524;9.846;2023-06-14T00:08:19;6.50;;;2.60;;
20639;SDS011;10479;53.524;9.846;2023-06-14T00:10:47;8.15;;;2.50;;
20639;SDS011;10479;53.524;9.846;2023-06-14T00:13:13;6.05;;;2.20;;
20639;SDS011;10479;53.524;9.846;2023-06-14T00:15:39;6.72;;;2.58;;
20639;SDS011;10479;53.524;9.846;2023-06-14T00:18:04;7.10;;;2.20;;
20639;SDS011;10479;53.524;9.846;2023-06-14T00:20:30;8.02;;;2.55;;
20639;SDS011;10479;53.524;9.846;2023-06-14T00:22:58;6.63;;;2.45;;
20639;SDS011;10479;53.524;9.846;2023-06-14T00:25:26;6.88;;;2.50;;
20639;SDS011;10479;53.524;9.846;2023-06-14T00:27:53;8.60;;;2.80;;
20639;SDS011;10479;53.524;9.846;2023-06-14T00:30:19;7.55;;;2.53;;
20639;SDS011;10479;53.524;9.846;2023-06-14T00:32:45;6.40;;;2.38;;
20639;SDS011;10479;53.524;9.846;2023-06-14T00:35:11;5.68;;;2.03;;
20639;SDS011;10479;53.524;9.846;2023-06-14T00:37:37;8.77;;;2.78;;
20639;SDS011;10479;53.524;9.846;2023-06-14T00:40:03;5.40;;;2.25;;
20639;SDS011;10479;53.524;9.846;2023-06-14T00:42:29;6.10;;;2.55;;
20639;SDS011;10479;53.524;9.846;2023-06-14T00:44:55;4.85;;;2.55;;
20639;SDS011;10479;53.524;9.846;2023-06-14T00:47:21;5.50;;;2.50;;
20639;SDS011;10479;53.524;9.846;2023-06-14T00:49:47;4.75;;;2.58;;
20639;SDS011;10479;53.524;9.846;2023-06-14T00:52:13;8.70;;;2.70;;
20639;SDS011;10479;53.524;9.846;2023-06-14T00:54:40;9.73;;;2.65;;
20639;SDS011;10479;53.524;9.846;2023-06-14T00:57:06;7.40;;;2.60;;
20639;SDS011;10479;53.524;9.846;2023-06-14T00:59:32;7.65;;;2.90;;
20639;SDS011;10479;53.524;9.846;2023-06-14T01:01:58;8.13;;;3.35;;
20639;SDS011;10479;53.524;9.846;2023-06-14T01:04:23;6.70;;;2.63;;
20639;SDS011;10479;53.524;9.846;2023-06-14T01:09:25;7.55;;;2.65;;
20639;SDS011;10479;53.524;9.846;2023-06-14T01:12:13;9.73;;;2.70;;
20639;SDS011;10479;53.524;9.846;2023-06-14T01:14:43;8.95;;;2.67;;
20639;SDS011;10479;53.524;9.846;2023-06-14T01:17:09;6.70;;;2.55;;
20639;SDS011;10479;53.524;9.846;2023-06-14T01:19:42;9.93;;;2.40;;
20639;SDS011;10479;53.524;9.846;2023-06-14T01:22:08;6.20;;;2.40;;
20639;SDS011;10479;53.524;9.846;2023-06-14T01:24:34;7.03;;;3.10;;
20639;SDS011;10479;53.524;9.846;2023-06-14T01:26:59;7.13;;;2.63;;
20639;SDS011;10479;53.524;9.846;2023-06-14T01:29:25;8.70;;;3.05;;
20639;SDS011;10479;53.524;9.846;2023-06-14T01:31:53;11.02;;;3.72;;
20639;SDS011;10479;53.524;9.846;2023-06-14T01:34:19;11.55;;;2.80;;
20639;SDS011;10479;53.524;9.846;2023-06-14T01:36:44;6.60;;;2.97;;
20639;SDS011;10479;53.524;9.846;2023-06-14T01:39:11;5.80;;;2.97;;
20639;SDS011;10479;53.524;9.846;2023-06-14T01:41:39;7.35;;;3.20;;
20639;SDS011;10479;53.524;9.846;2023-06-14T01:44:05;5.75;;;3.20;;
20639;SDS011;10479;53.524;9.846;2023-06-14T01:46:31;7.43;;;3.35;;
20639;SDS011;10479;53.524;9.846;2023-06-14T01:48:56;8.27;;;3.20;;
20639;SDS011;10479;53.524;9.846;2023-06-14T01:51:22;10.23;;;3.10;;
20639;SDS011;10479;53.524;9.846;2023-06-14T01:53:47;10.93;;;2.92;;
20639;SDS011;10479;53.524;9.846;2023-06-14T01:56:13;8.40;;;3.28;;
20639;SDS011;10479;53.524;9.846;2023-06-14T01:58:39;6.70;;;3.00;;
20639;SDS011;10479;53.524;9.846;2023-06-14T02:01:05;5.85;;;3.10;;
20639;SDS011;10479;53.524;9.846;2023-06-14T02:03:31;6.25;;;2.88;;
20639;SDS011;10479;53.524;9.846;2023-06-14T02:05:57;8.00;;;3.28;;
20639;SDS011;10479;53.524;9.846;2023-06-14T02:08:23;5.63;;;2.97;;
20639;SDS011;10479;53.524;9.846;2023-06-14T02:10:49;8.73;;;3.00;;
20639;SDS011;10479;53.524;9.846;2023-06-14T02:13:14;9.38;;;3.60;;
20639;SDS011;10479;53.524;9.846;2023-06-14T02:15:40;8.48;;;3.50;;
20639;SDS011;10479;53.524;9.846;2023-06-14T02:18:08;8.88;;;3.47;;
20639;SDS011;10479;53.524;9.846;2023-06-14T02:20:34;7.45;;;3.63;;
20639;SDS011;10479;53.524;9.846;2023-06-14T02:22:59;6.32;;;3.03;;
20639;SDS011;10479;53.524;9.846;2023-06-14T02:25:25;7.00;;;2.92;;
20639;SDS011;10479;53.524;9.846;2023-06-14T02:27:52;6.20;;;3.35;;
20639;SDS011;10479;53.524;9.846;2023-06-14T02:30:18;9.93;;;3.33;;
20639;SDS011;10479;53.524;9.846;2023-06-14T02:32:43;8.13;;;3.00;;
20639;SDS011;10479;53.524;9.846;2023-06-14T02:35:09;8.00;;;2.63;;
20639;SDS011;10479;53.524;9.846;2023-06-14T02:37:35;9.82;;;3.15;;
20639;SDS011;10479;53.524;9.846;2023-06-14T02:40:00;7.57;;;3.17;;
20639;SDS011;10479;53.524;9.846;2023-06-14T02:42:26;8.68;;;2.70;;
20639;SDS011;10479;53.524;9.846;2023-06-14T02:44:51;6.78;;;3.00;;
20639;SDS011;10479;53.524;9.846;2023-06-14T02:47:17;8.77;;;2.80;;
20639;SDS011;10479;53.524;9.846;2023-06-14T02:49:43;9.48;;;2.90;;
20639;SDS011;10479;53.524;9.846;2023-06-14T02:52:11;7.05;;;2.88;;
20639;SDS011;10479;53.524;9.846;2023-06-14T02:54:37;6.55;;;2.78;;
20639;SDS011;10479;53.524;9.846;2023-06-14T02:57:02;5.55;;;3.05;;
20639;SDS011;10479;53.524;9.846;2023-06-14T02:59:28;8.35;;;3.08;;
20639;SDS011;10479;53.524;9.846;2023-06-14T03:01:53;8.40;;;2.80;;
20639;SDS011;10479;53.524;9.846;2023-06-14T03:04:19;11.95;;;3.28;;
20639;SDS011;10479;53.524;9.846;2023-06-14T03:06:45;7.95;;;3.13;;
20639;SDS011;10479;53.524;9.846;2023-06-14T03:09:15;8.05;;;3.08;;
20639;SDS011;10479;53.524;9.846;2023-06-14T03:11:41;7.88;;;3.35;;
20639;SDS011;10479;53.524;9.846;2023-06-14T03:14:06;12.07;;;3.30;;
20639;SDS011;10479;53.524;9.846;2023-06-14T03:16:33;11.57;;;3.47;;
20639;SDS011;10479;53.524;9.846;2023-06-14T03:18:59;7.22;;;3.35;;
20639;SDS011;10479;53.524;9.846;2023-06-14T03:21:24;7.93;;;3.50;;
20639;SDS011;10479;53.524;9.846;2023-06-14T03:23:51;7.85;;;3.03;;
20639;SDS011;10479;53.524;9.846;2023-06-14T03:26:18;7.28;;;3.15;;
20639;SDS011;10479;53.524;9.846;2023-06-14T03:28:47;6.13;;;3.03;;
20639;SDS011;10479;53.524;9.846;2023-06-14T03:31:14;10.13;;;3.40;;
20639;SDS011;10479;53.524;9.846;2023-06-14T03:33:41;10.23;;;4.00;;
20639;SDS011;10479;53.524;9.846;2023-06-14T03:36:07;11.02;;;3.40;;
20639;SDS011;10479;53.524;9.846;2023-06-14T03:38:32;13.60;;;3.63;;
20639;SDS011;10479;53.524;9.846;2023-06-14T03:40:58;10.35;;;3.30;;
20639;SDS011;10479;53.524;9.846;2023-06-14T03:43:23;9.02;;;3.95;;
20639;SDS011;10479;53.524;9.846;2023-06-14T03:45:49;9.35;;;3.33;;
20639;SDS011;10479;53.524;9.846;2023-06-14T03:48:14;8.57;;;3.38;;
20639;SDS011;10479;53.524;9.846;2023-06-14T03:50:40;8.98;;;3.60;;
20639;SDS011;10479;53.524;9.846;2023-06-14T03:53:07;9.60;;;3.40;;
20639;SDS011;10479;53.524;9.846;2023-06-14T03:55:33;10.57;;;3.15;;
20639;SDS011;10479;53.524;9.846;2023-06-14T03:57:59;12.70;;;3.35;;
20639;SDS011;10479;53.524;9.846;2023-06-14T04:00:25;12.55;;;3.35;;
20639;SDS011;10479;53.524;9.846;2023-06-14T04:02:51;8.75;;;2.97;;
20639;SDS011;10479;53.524;9.846;2023-06-14T04:05:17;12.73;;;3.58;;
20639;SDS011;10479;53.524;9.846;2023-06-14T04:07:44;7.93;;;3.17;;
20639;SDS011;10479;53.524;9.846;2023-06-14T04:10:13;9.75;;;3.30;;
20639;SDS011;10479;53.524;9.846;2023-06-14T04:12:38;8.95;;;3.10;;
20639;SDS011;10479;53.524;9.846;2023-06-14T04:15:04;8.23;;;3.45;;
20639;SDS011;10479;53.524;9.846;2023-06-14T04:17:37;9.65;;;3.38;;
20639;SDS011;10479;53.524;9.846;2023-06-14T04:20:03;9.30;;;3.40;;
20639;SDS011;10479;53.524;9.846;2023-06-14T04:22:31;9.10;;;3.25;;
20639;SDS011;10479;53.524;9.846;2023-06-14T04:24:57;7.97;;;3.22;;
20639;SDS011;10479;53.524;9.846;2023-06-14T04:27:28;9.07;;;3.70;;
20639;SDS011;10479;53.524;9.846;2023-06-14T04:29:56;15.68;;;4.13;;
20639;SDS011;10479;53.524;9.846;2023-06-14T04:32:28;10.65;;;3.65;;
20639;SDS011;10479;53.524;9.846;2023-06-14T04:35:07;9.43;;;3.53;;
20639;SDS011;10479;53.524;9.846;2023-06-14T04:37:32;11.73;;;3.22;;
20639;SDS011;10479;53.524;9.846;2023-06-14T04:39:58;13.85;;;4.05;;
20639;SDS011;10479;53.524;9.846;2023-06-14T04:42:23;11.23;;;4.88;;
20639;SDS011;10479;53.524;9.846;2023-06-14T04:44:50;9.95;;;4.47;;
20639;SDS011;10479;53.524;9.846;2023-06-14T04:47:17;9.93;;;4.30;;
20639;SDS011;10479;53.524;9.846;2023-06-14T04:49:44;10.27;;;3.78;;
20639;SDS011;10479;53.524;9.846;2023-06-14T04:52:09;11.15;;;3.70;;
20639;SDS011;10479;53.524;9.846;2023-06-14T04:54:39;9.73;;;3.67;;
20639;SDS011;10479;53.524;9.846;2023-06-14T04:57:08;8.30;;;3.90;;
20639;SDS011;10479;53.524;9.846;2023-06-14T04:59:39;7.93;;;3.50;;
20639;SDS011;10479;53.524;9.846;2023-06-14T05:02:05;7.63;;;3.53;;
20639;SDS011;10479;53.524;9.846;2023-06-14T05:04:32;13.93;;;3.85;;
20639;SDS011;10479;53.524;9.846;2023-06-14T05:06:57;11.68;;;3.47;;
20639;SDS011;10479;53.524;9.846;2023-06-14T05:09:23;8.82;;;4.13;;
20639;SDS011;10479;53.524;9.846;2023-06-14T05:11:48;7.40;;;3.63;;
20639;SDS011;10479;53.524;9.846;2023-06-14T05:14:15;9.68;;;3.80;;
20639;SDS011;10479;53.524;9.846;2023-06-14T05:16:41;13.63;;;3.97;;
20639;SDS011;10479;53.524;9.846;2023-06-14T05:19:06;9.02;;;3.75;;
20639;SDS011;10479;53.524;9.846;2023-06-14T05:21:32;11.07;;;4.18;;
20639;SDS011;10479;53.524;9.846;2023-06-14T05:23:59;6.57;;;3.53;;
20639;SDS011;10479;53.524;9.846;2023-06-14T05:26:25;7.18;;;3.50;;
20639;SDS011;10479;53.524;9.846;2023-06-14T05:28:56;11.38;;;4.65;;
20639;SDS011;10479;53.524;9.846;2023-06-14T05:31:23;10.32;;;3.70;;
20639;SDS011;10479;53.524;9.846;2023-06-14T05:33:52;11.55;;;3.50;;
20639;SDS011;10479;53.524;9.846;2023-06-14T05:36:18;11.00;;;3.90;;
20639;SDS011;10479;53.524;9.846;2023-06-14T05:38:44;12.27;;;4.10;;
20639;SDS011;10479;53.524;9.846;2023-06-14T05:41:10;9.35;;;4.03;;
20639;SDS011;10479;53.524;9.846;2023-06-14T05:43:36;10.05;;;3.90;;
20639;SDS011;10479;53.524;9.846;2023-06-14T05:46:01;8.25;;;3.30;;
20639;SDS011;10479;53.524;9.846;2023-06-14T05:48:26;12.10;;;3.85;;
20639;SDS011;10479;53.524;9.846;2023-06-14T05:50:52;8.23;;;3.40;;
20639;SDS011;10479;53.524;9.846;2023-06-14T05:53:17;10.93;;;3.63;;
20639;SDS011;10479;53.524;9.846;2023-06-14T05:55:43;6.05;;;3.28;;
20639;SDS011;10479;53.524;9.846;2023-06-14T05:58:08;13.25;;;4.00;;
20639;SDS011;10479;53.524;9.846;2023-06-14T06:00:34;10.38;;;3.45;;
20639;SDS011;10479;53.524;9.846;2023-06-14T06:02:59;9.57;;;3.40;;
20639;SDS011;10479;53.524;9.846;2023-06-14T06:05:26;9.10;;;3.92;;
20639;SDS011;10479;53.524;9.846;2023-06-14T06:07:51;10.38;;;3.95;;
20639;SDS011;10479;53.524;9.846;2023-06-14T06:10:17;9.00;;;3.72;;
20639;SDS011;10479;53.524;9.846;2023-06-14T06:12:42;17.25;;;3.70;;
20639;SDS011;10479;53.524;9.846;2023-06-14T06:15:08;12.63;;;4.30;;
20639;SDS011;10479;53.524;9.846;2023-06-14T06:17:37;12.27;;;4.13;;
20639;SDS011;10479;53.524;9.846;2023-06-14T06:20:03;10.32;;;3.67;;
20639;SDS011;10479;53.524;9.846;2023-06-14T06:22:30;13.68;;;4.82;;
20639;SDS011;10479;53.524;9.846;2023-06-14T06:24:56;9.35;;;4.05;;
20639;SDS011;10479;53.524;9.846;2023-06-14T06:27:21;12.15;;;4.43;;
20639;SDS011;10479;53.524;9.846;2023-06-14T06:29:47;13.80;;;3.92;;
20639;SDS011;10479;53.524;9.846;2023-06-14T06:32:13;16.42;;;4.50;;
20639;SDS011;10479;53.524;9.846;2023-06-14T06:34:42;12.52;;;3.75;;
20639;SDS011;10479;53.524;9.846;2023-06-14T06:37:07;11.45;;;3.60;;
20639;SDS011;10479;53.524;9.846;2023-06-14T06:39:33;10.35;;;3.28;;
20639;SDS011;10479;53.524;9.846;2023-06-14T06:41:58;6.75;;;2.90;;
20639;SDS011;10479;53.524;9.846;2023-06-14T06:44:24;7.28;;;2.90;;
20639;SDS011;10479;53.524;9.846;2023-06-14T06:46:49;11.73;;;3.13;;
20639;SDS011;10479;53.524;9.846;2023-06-14T06:49:15;9.05;;;2.40;;
20639;SDS011;10479;53.524;9.846;2023-06-14T06:51:53;6.03;;;2.80;;
20639;SDS011;10479;53.524;9.846;2023-06-14T06:54:24;9.93;;;3.10;;
20639;SDS011;10479;53.524;9.846;2023-06-14T06:56:49;8.13;;;2.85;;
20639;SDS011;10479;53.524;9.846;2023-06-14T06:59:15;7.88;;;2.70;;
20639;SDS011;10479;53.524;9.846;2023-06-14T07:01:41;9.95;;;3.10;;
20639;SDS011;10479;53.524;9.846;2023-06-14T07:04:07;16.52;;;5.07;;
20639;SDS011;10479;53.524;9.846;2023-06-14T07:06:33;14.85;;;4.93;;
20639;SDS011;10479;53.524;9.846;2023-06-14T07:08:58;15.80;;;4.93;;
20639;SDS011;10479;53.524;9.846;2023-06-14T07:11:26;6.15;;;3.00;;
20639;SDS011;10479;53.524;9.846;2023-06-14T07:13:52;11.10;;;3.25;;
20639;SDS011;10479;53.524;9.846;2023-06-14T07:16:18;10.02;;;2.92;;
20639;SDS011;10479;53.524;9.846;2023-06-14T07:18:43;11.40;;;3.25;;
20639;SDS011;10479;53.524;9.846;2023-06-14T07:21:09;10.27;;;3.20;;
20639;SDS011;10479;53.524;9.846;2023-06-14T07:23:34;6.53;;;2.63;;
20639;SDS011;10479;53.524;9.846;2023-06-14T07:26:00;9.57;;;2.53;;
20639;SDS011;10479;53.524;9.846;2023-06-14T07:28:26;8.20;;;2.90;;
20639;SDS011;10479;53.524;9.846;2023-06-14T07:30:51;10.63;;;2.58;;
20639;SDS011;10479;53.524;9.846;2023-06-14T07:33:17;7.70;;;2.25;;
20639;SDS011;10479;53.524;9.846;2023-06-14T07:35:42;5.93;;;2.50;;
20639;SDS011;10479;53.524;9.846;2023-06-14T07:38:08;8.13;;;2.50;;
20639;SDS011;10479;53.524;9.846;2023-06-14T07:40:33;9.60;;;2.30;;
20639;SDS011;10479;53.524;9.846;2023-06-14T07:42:59;9.35;;;3.10;;
20639;SDS011;10479;53.524;9.846;2023-06-14T07:45:24;6.18;;;2.70;;
20639;SDS011;10479;53.524;9.846;2023-06-14T07:47:49;11.55;;;2.95;;
20639;SDS011;10479;53.524;9.846;2023-06-14T07:50:16;5.90;;;2.50;;
20639;SDS011;10479;53.524;9.846;2023-06-14T07:52:42;7.30;;;2.22;;
20639;SDS011;10479;53.524;9.846;2023-06-14T07:55:07;5.68;;;2.58;;
20639;SDS011;10479;53.524;9.846;2023-06-14T07:57:33;8.35;;;2.38;;
20639;SDS011;10479;53.524;9.846;2023-06-14T07:59:58;9.10;;;3.40;;
20639;SDS011;10479;53.524;9.846;2023-06-14T08:02:24;7.75;;;3.72;;
20639;SDS011;10479;53.524;9.846;2023-06-14T08:04:49;12.73;;;3.50;;
20639;SDS011;10479;53.524;9.846;2023-06-14T08:07:15;9.70;;;2.50;;
20639;SDS011;10479;53.524;9.846;2023-06-14T08:09:40;7.55;;;2.30;;
20639;SDS011;10479;53.524;9.846;2023-06-14T08:12:06;4.97;;;2.30;;
20639;SDS011;10479;53.524;9.846;2023-06-14T08:14:35;8.05;;;2.05;;
20639;SDS011;10479;53.524;9.846;2023-06-14T08:17:01;9.65;;;3.00;;
20639;SDS011;10479;53.524;9.846;2023-06-14T08:19:26;10.90;;;2.85;;
20639;SDS011;10479;53.524;9.846;2023-06-14T08:21:52;8.57;;;2.60;;
20639;SDS011;10479;53.524;9.846;2023-06-14T08:24:20;5.43;;;2.30;;
20639;SDS011;10479;53.524;9.846;2023-06-14T08:26:46;10.35;;;2.83;;
20639;SDS011;10479;53.524;9.846;2023-06-14T08:29:12;8.32;;;2.88;;
20639;SDS011;10479;53.524;9.846;2023-06-14T08:31:37;6.35;;;2.30;;
20639;SDS011;10479;53.524;9.846;2023-06-14T08:34:03;4.88;;;2.20;;
20639;SDS011;10479;53.524;9.846;2023-06-14T08:36:28;6.72;;;2.40;;
20639;SDS011;10479;53.524;9.846;2023-06-14T08:38:54;8.15;;;3.03;;
20639;SDS011;10479;53.524;9.846;2023-06-14T08:41:21;8.45;;;2.65;;
20639;SDS011;10479;53.524;9.846;2023-06-14T08:43:51;5.32;;;2.60;;
20639;SDS011;10479;53.524;9.846;2023-06-14T08:46:18;20.25;;;2.80;;
20639;SDS011;10479;53.524;9.846;2023-06-14T08:48:48;8.50;;;2.92;;
20639;SDS011;10479;53.524;9.846;2023-06-14T08:51:16;10.50;;;2.55;;
20639;SDS011;10479;53.524;9.846;2023-06-14T08:53:44;7.63;;;2.45;;
20639;SDS011;10479;53.524;9.846;2023-06-14T08:56:10;10.00;;;2.80;;
20639;SDS011;10479;53.524;9.846;2023-06-14T08:58:44;5.03;;;2.58;;
20639;SDS011;10479;53.524;9.846;2023-06-14T09:01:12;6.70;;;2.78;;
20639;SDS011;10479;53.524;9.846;2023-06-14T09:03:40;8.68;;;2.60;;
20639;SDS011;10479;53.524;9.846;2023-06-14T09:06:07;9.60;;;2.38;;
20639;SDS011;10479;53.524;9.846;2023-06-14T09:08:34;9.60;;;3.20;;
20639;SDS011;10479;53.524;9.846;2023-06-14T09:11:01;7.25;;;2.50;;
20639;SDS011;10479;53.524;9.846;2023-06-14T09:13:26;5.38;;;2.55;;
20639;SDS011;10479;53.524;9.846;2023-06-14T09:15:52;8.43;;;2.35;;
20639;SDS011;10479;53.524;9.846;2023-06-14T09:18:18;11.20;;;2.80;;
20639;SDS011;10479;53.524;9.846;2023-06-14T09:20:45;9.63;;;2.90;;
20639;SDS011;10479;53.524;9.846;2023-06-14T09:23:12;4.60;;;2.28;;
20639;SDS011;10479;53.524;9.846;2023-06-14T09:25:41;11.25;;;2.60;;
20639;SDS011;10479;53.524;9.846;2023-06-14T09:28:08;7.10;;;2.30;;
20639;SDS011;10479;53.524;9.846;2023-06-14T09:30:35;5.97;;;2.53;;
20639;SDS011;10479;53.524;9.846;2023-06-14T09:33:03;6.28;;;2.67;;
20639;SDS011;10479;53.524;9.846;2023-06-14T09:35:30;5.68;;;2.42;;
20639;SDS011;10479;53.524;9.846;2023-06-14T09:37:56;7.15;;;2.67;;
20639;SDS011;10479;53.524;9.846;2023-06-14T09:40:22;5.72;;;2.85;;
20639;SDS011;10479;53.524;9.846;2023-06-14T09:42:48;4.53;;;2.30;;
20639;SDS011;10479;53.524;9.846;2023-06-14T09:45:15;7.38;;;2.60;;
20639;SDS011;10479;53.524;9.846;2023-06-14T09:47:46;5.45;;;2.53;;
20639;SDS011;10479;53.524;9.846;2023-06-14T09:50:14;5.32;;;2.75;;
20639;SDS011;10479;53.524;9.846;2023-06-14T09:52:39;11.45;;;2.58;;
20639;SDS011;10479;53.524;9.846;2023-06-14T09:55:12;4.55;;;2.53;;
20639;SDS011;10479;53.524;9.846;2023-06-14T09:57:40;7.65;;;2.47;;
20639;SDS011;10479;53.524;9.846;2023-06-14T10:00:06;5.60;;;2.60;;
20639;SDS011;10479;53.524;9.846;2023-06-14T10:02:36;6.28;;;2.70;;
20639;SDS011;10479;53.524;9.846;2023-06-14T10:05:06;6.50;;;2.53;;
20639;SDS011;10479;53.524;9.846;2023-06-14T10:10:19;8.77;;;2.53;;
20639;SDS011;10479;53.524;9.846;2023-06-14T10:12:45;7.18;;;2.40;;
20639;SDS011;10479;53.524;9.846;2023-06-14T10:15:15;8.68;;;2.90;;
20639;SDS011;10479;53.524;9.846;2023-06-14T10:17:52;6.13;;;2.58;;
20639;SDS011;10479;53.524;9.846;2023-06-14T10:20:26;6.28;;;2.58;;
20639;SDS011;10479;53.524;9.846;2023-06-14T10:23:03;7.20;;;2.58;;
20639;SDS011;10479;53.524;9.846;2023-06-14T10:25:34;6.80;;;2.95;;
20639;SDS011;10479;53.524;9.846;2023-06-14T10:28:18;9.43;;;3.22;;
20639;SDS011;10479;53.524;9.846;2023-06-14T10:33:35;8.52;;;2.80;;
20639;SDS011;10479;53.524;9.846;2023-06-14T10:38:56;8.05;;;3.00;;
20639;SDS011;10479;53.524;9.846;2023-06-14T10:41:34;9.30;;;3.05;;
20639;SDS011;10479;53.524;9.846;2023-06-14T10:44:10;11.18;;;3.13;;
20639;SDS011;10479;53.524;9.846;2023-06-14T10:46:48;5.25;;;2.53;;
20639;SDS011;10479;53.524;9.846;2023-06-14T10:49:36;6.00;;;3.13;;
20639;SDS011;10479;53.524;9.846;2023-06-14T10:52:12;5.40;;;2.80;;
20639;SDS011;10479;53.524;9.846;2023-06-14T10:57:53;9.90;;;3.22;;
20639;SDS011;10479;53.524;9.846;2023-06-14T11:00:23;10.40;;;2.70;;
20639;SDS011;10479;53.524;9.846;2023-06-14T11:05:55;8.98;;;3.10;;
20639;SDS011;10479;53.524;9.846;2023-06-14T11:10:59;6.60;;;2.60;;
20639;SDS011;10479;53.524;9.846;2023-06-14T11:13:25;9.02;;;3.00;;
20639;SDS011;10479;53.524;9.846;2023-06-14T11:15:52;8.38;;;2.55;;
20639;SDS011;10479;53.524;9.846;2023-06-14T11:18:22;5.85;;;2.47;;
20639;SDS011;10479;53.524;9.846;2023-06-14T11:20:52;6.05;;;2.70;;
20639;SDS011;10479;53.524;9.846;2023-06-14T11:23:18;9.40;;;3.05;;
20639;SDS011;10479;53.524;9.846;2023-06-14T11:25:43;7.78;;;2.90;;
20639;SDS011;10479;53.524;9.846;2023-06-14T11:28:15;6.65;;;2.80;;
20639;SDS011;10479;53.524;9.846;2023-06-14T11:30:40;6.40;;;2.63;;
20639;SDS011;10479;53.524;9.846;2023-06-14T11:33:09;7.07;;;2.60;;
20639;SDS011;10479;53.524;9.846;2023-06-14T11:35:35;5.82;;;2.83;;
20639;SDS011;10479;53.524;9.846;2023-06-14T11:38:01;9.50;;;2.60;;
20639;SDS011;10479;53.524;9.846;2023-06-14T11:40:27;8.27;;;2.70;;
20639;SDS011;10479;53.524;9.846;2023-06-14T11:42:59;7.68;;;2.53;;
20639;SDS011;10479;53.524;9.846;2023-06-14T11:45:26;11.82;;;3.33;;
20639;SDS011;10479;53.524;9.846;2023-06-14T11:47:53;7.80;;;2.85;;
20639;SDS011;10479;53.524;9.846;2023-06-14T11:50:21;7.18;;;2.78;;
20639;SDS011;10479;53.524;9.846;2023-06-14T11:52:51;22.00;;;3.28;;
20639;SDS011;10479;53.524;9.846;2023-06-14T11:55:21;11.85;;;3.00;;
20639;SDS011;10479;53.524;9.846;2023-06-14T11:57:47;9.32;;;2.90;;
20639;SDS011;10479;53.524;9.846;2023-06-14T12:00:12;5.78;;;3.10;;
20639;SDS011;10479;53.524;9.846;2023-06-14T12:02:40;5.32;;;2.58;;
20639;SDS011;10479;53.524;9.846;2023-06-14T12:05:06;7.47;;;2.80;;
20639;SDS011;10479;53.524;9.846;2023-06-14T12:07:35;10.75;;;2.85;;
20639;SDS011;10479;53.524;9.846;2023-06-14T12:12:28;6.15;;;2.60;;
20639;SDS011;10479;53.524;9.846;2023-06-14T12:14:55;4.78;;;2.45;;
20639;SDS011;10479;53.524;9.846;2023-06-14T12:17:21;5.25;;;2.78;;
20639;SDS011;10479;53.524;9.846;2023-06-14T12:19:46;8.50;;;2.60;;
20639;SDS011;10479;53.524;9.846;2023-06-14T12:22:14;8.05;;;2.78;;
20639;SDS011;10479;53.524;9.846;2023-06-14T12:24:43;4.82;;;2.85;;
20639;SDS011;10479;53.524;9.846;2023-06-14T12:27:08;7.68;;;2.80;;
20639;SDS011;10479;53.524;9.846;2023-06-14T12:29:36;8.40;;;2.97;;
20639;SDS011;10479;53.524;9.846;2023-06-14T12:32:02;10.07;;;2.63;;
20639;SDS011;10479;53.524;9.846;2023-06-14T12:34:27;8.23;;;2.85;;
20639;SDS011;10479;53.524;9.846;2023-06-14T12:36:53;7.68;;;2.90;;
20639;SDS011;10479;53.524;9.846;2023-06-14T12:39:19;5.22;;;2.55;;
20639;SDS011;10479;53.524;9.846;2023-06-14T12:41:45;6.57;;;2.40;;
20639;SDS011;10479;53.524;9.846;2023-06-14T12:44:11;9.90;;;2.72;;
20639;SDS011;10479;53.524;9.846;2023-06-14T12:46:37;5.88;;;2.63;;
20639;SDS011;10479;53.524;9.846;2023-06-14T12:49:04;8.68;;;3.00;;
20639;SDS011;10479;53.524;9.846;2023-06-14T12:51:31;6.03;;;2.70;;
20639;SDS011;10479;53.524;9.846;2023-06-14T12:53:57;6.40;;;2.67;;
20639;SDS011;10479;53.524;9.846;2023-06-14T12:56:22;9.68;;;2.90;;
20639;SDS011;10479;53.524;9.846;2023-06-14T12:58:48;4.90;;;2.92;;
20639;SDS011;10479;53.524;9.846;2023-06-14T13:01:13;8.23;;;2.60;;
20639;SDS011;10479;53.524;9.846;2023-06-14T13:03:38;8.15;;;2.85;;
20639;SDS011;10479;53.524;9.846;2023-06-14T13:06:04;10.70;;;2.80;;
20639;SDS011;10479;53.524;9.846;2023-06-14T13:08:30;7.43;;;2.80;;
20639;SDS011;10479;53.524;9.846;2023-06-14T13:10:56;6.40;;;2.70;;
20639;SDS011;10479;53.524;9.846;2023-06-14T13:13:21;7.93;;;2.90;;
20639;SDS011;10479;53.524;9.846;2023-06-14T13:15:47;6.32;;;2.90;;
20639;SDS011;10479;53.524;9.846;2023-06-14T13:18:14;8.43;;;2.97;;
20639;SDS011;10479;53.524;9.846;2023-06-14T13:20:41;10.75;;;2.83;;
20639;SDS011;10479;53.524;9.846;2023-06-14T13:23:06;8.35;;;3.08;;
20639;SDS011;10479;53.524;9.846;2023-06-14T13:25:36;7.70;;;2.60;;
20639;SDS011;10479;53.524;9.846;2023-06-14T13:28:03;8.65;;;2.85;;
20639;SDS011;10479;53.524;9.846;2023-06-14T13:30:29;5.82;;;2.92;;
20639;SDS011;10479;53.524;9.846;2023-06-14T13:32:55;9.50;;;3.10;;
20639;SDS011;10479;53.524;9.846;2023-06-14T13:35:21;7.00;;;2.90;;
20639;SDS011;10479;53.524;9.846;2023-06-14T13:37:47;9.77;;;2.63;;
20639;SDS011;10479;53.524;9.846;2023-06-14T13:40:12;6.75;;;2.45;;
20639;SDS011;10479;53.524;9.846;2023-06-14T13:42:38;4.45;;;2.55;;
20639;SDS011;10479;53.524;9.846;2023-06-14T13:45:04;9.32;;;3.03;;
20639;SDS011;10479;53.524;9.846;2023-06-14T13:47:30;9.23;;;2.72;;
20639;SDS011;10479;53.524;9.846;2023-06-14T13:49:56;9.15;;;2.80;;
20639;SDS011;10479;53.524;9.846;2023-06-14T13:52:21;5.32;;;2.30;;
20639;SDS011;10479;53.524;9.846;2023-06-14T13:54:47;7.72;;;2.92;;
20639;SDS011;10479;53.524;9.846;2023-06-14T13:57:12;7.72;;;2.72;;
20639;SDS011;10479;53.524;9.846;2023-06-14T13:59:38;6.65;;;2.63;;
20639;SDS011;10479;53.524;9.846;2023-06-14T14:02:05;6.18;;;2.70;;
20639;SDS011;10479;53.524;9.846;2023-06-14T14:04:31;6.60;;;2.17;;
20639;SDS011;10479;53.524;9.846;2023-06-14T14:06:56;7.78;;;2.70;;
20639;SDS011;10479;53.524;9.846;2023-06-14T14:09:22;6.53;;;2.45;;
20639;SDS011;10479;53.524;9.846;2023-06-14T14:11:48;7.95;;;2.63;;
20639;SDS011;10479;53.524;9.846;2023-06-14T14:14:14;7.35;;;2.40;;
20639;SDS011;10479;53.524;9.846;2023-06-14T14:16:39;6.78;;;2.78;;
20639;SDS011;10479;53.524;9.846;2023-06-14T14:19:05;7.05;;;2.80;;
20639;SDS011;10479;53.524;9.846;2023-06-14T14:21:31;6.47;;;2.72;;
20639;SDS011;10479;53.524;9.846;2023-06-14T14:23:57;6.38;;;2.72;;
20639;SDS011;10479;53.524;9.846;2023-06-14T14:26:22;5.93;;;2.63;;
20639;SDS011;10479;53.524;9.846;2023-06-14T14:28:48;5.97;;;2.53;;
20639;SDS011;10479;53.524;9.846;2023-06-14T14:31:14;9.27;;;2.60;;
20639;SDS011;10479;53.524;9.846;2023-06-14T14:33:40;6.55;;;2.47;;
20639;SDS011;10479;53.524;9.846;2023-06-14T14:36:05;5.85;;;2.33;;
20639;SDS011;10479;53.524;9.846;2023-06-14T14:38:32;7.55;;;2.65;;
20639;SDS011;10479;53.524;9.846;2023-06-14T14:40:57;8.82;;;2.50;;
20639;SDS011;10479;53.524;9.846;2023-06-14T14:43:22;7.72;;;2.92;;
20639;SDS011;10479;53.524;9.846;2023-06-14T14:45:48;10.48;;;2.75;;
20639;SDS011;10479;53.524;9.846;2023-06-14T14:48:13;9.85;;;2.72;;
20639;SDS011;10479;53.524;9.846;2023-06-14T14:50:39;8.45;;;2.53;;
20639;SDS011;10479;53.524;9.846;2023-06-14T14:53:05;7.60;;;2.50;;
20639;SDS011;10479;53.524;9.846;2023-06-14T14:55:31;7.78;;;2.60;;
20639;SDS011;10479;53.524;9.846;2023-06-14T14:57:59;7.78;;;2.60;;
20639;SDS011;10479;53.524;9.846;2023-06-14T15:00:25;7.78;;;2.28;;
20639;SDS011;10479;53.524;9.846;2023-06-14T15:02:51;10.25;;;2.60;;
20639;SDS011;10479;53.524;9.846;2023-06-14T15:05:16;8.93;;;2.35;;